createdAt,value
2018-05-07T00:00:01.254Z,2.37
2018-05-07T00:02:29.528Z,2.77
2018-05-07T00:04:57.799Z,2.17
2018-05-07T00:07:26.078Z,1.80
2018-05-07T00:09:54.350Z,2.47
2018-05-07T00:12:22.928Z,2.17
2018-05-07T00:14:51.193Z,2.40
2018-05-07T00:17:19.462Z,2.10
2018-05-07T00:19:47.738Z,2.37
2018-05-07T00:22:16.001Z,2.70
2018-05-07T00:24:44.276Z,2.17
2018-05-07T00:27:12.539Z,2.17
2018-05-07T00:29:40.822Z,2.07
2018-05-07T00:32:09.086Z,2.50
2018-05-07T00:34:37.371Z,2.47
2018-05-07T00:37:05.629Z,2.20
2018-05-07T00:39:33.889Z,2.80
2018-05-07T00:42:02.166Z,2.20
2018-05-07T00:44:30.434Z,2.30
2018-05-07T00:46:58.729Z,2.13
2018-05-07T00:49:26.993Z,2.10
2018-05-07T00:51:55.261Z,1.90
2018-05-07T00:54:23.534Z,2.10
2018-05-07T00:56:51.809Z,2.10
2018-05-07T00:59:20.953Z,2.63
2018-05-07T01:01:49.225Z,2.37
2018-05-07T01:04:17.501Z,1.57
2018-05-07T01:06:45.773Z,2.43
2018-05-07T01:09:14.041Z,2.73
2018-05-07T01:11:42.317Z,1.97
2018-05-07T01:14:10.581Z,1.97
2018-05-07T01:16:38.858Z,2.17
2018-05-07T01:19:07.117Z,1.83
2018-05-07T01:21:35.393Z,2.27
2018-05-07T01:24:03.670Z,1.67
2018-05-07T01:26:31.939Z,1.87
2018-05-07T01:29:00.214Z,1.90
2018-05-07T01:31:28.487Z,2.90
2018-05-07T01:33:56.762Z,2.30
2018-05-07T01:36:25.034Z,2.20
2018-05-07T01:38:53.309Z,2.67
2018-05-07T01:41:21.582Z,2.80
2018-05-07T01:43:49.845Z,2.40
2018-05-07T01:46:18.121Z,2.93
2018-05-07T01:48:50.793Z,2.27
2018-05-07T01:51:19.077Z,2.40
2018-05-07T01:53:47.345Z,2.57
2018-05-07T01:56:15.648Z,2.77
2018-05-07T01:58:43.914Z,2.90
2018-05-07T02:01:12.190Z,2.40
2018-05-07T02:03:40.479Z,2.27
2018-05-07T02:06:08.742Z,2.00
2018-05-07T02:08:37.015Z,2.20
2018-05-07T02:11:05.286Z,2.50
2018-05-07T02:13:33.569Z,2.73
2018-05-07T02:16:01.836Z,1.97
2018-05-07T02:18:30.106Z,2.10
2018-05-07T02:20:58.385Z,2.47
2018-05-07T02:23:26.662Z,2.43
2018-05-07T02:25:54.941Z,2.10
2018-05-07T02:28:23.222Z,2.90
2018-05-07T02:30:51.485Z,1.97
2018-05-07T02:33:19.766Z,3.07
2018-05-07T02:35:48.034Z,2.00
2018-05-07T02:38:16.305Z,3.00
2018-05-07T02:40:44.571Z,2.47
2018-05-07T02:43:12.836Z,2.03
2018-05-07T02:45:41.110Z,2.67
2018-05-07T02:48:09.374Z,2.30
2018-05-07T02:50:37.647Z,2.43
2018-05-07T02:53:05.915Z,2.90
2018-05-07T02:55:34.191Z,3.40
2018-05-07T02:58:02.461Z,2.37
2018-05-07T03:00:30.730Z,2.83
2018-05-07T03:02:59.004Z,2.73
2018-05-07T03:05:27.273Z,1.90
2018-05-07T03:07:55.550Z,2.23
2018-05-07T03:10:23.815Z,2.90
2018-05-07T03:12:52.104Z,3.30
2018-05-07T03:15:20.369Z,2.73
2018-05-07T03:17:48.641Z,2.53
2018-05-07T03:20:16.913Z,3.57
2018-05-07T03:22:45.177Z,2.80
2018-05-07T03:25:13.453Z,2.27
2018-05-07T03:27:41.717Z,3.00
2018-05-07T03:30:10.006Z,2.80
2018-05-07T03:32:38.277Z,3.17
2018-05-07T03:35:06.555Z,2.77
2018-05-07T03:37:34.819Z,3.03
2018-05-07T03:40:03.082Z,2.63
2018-05-07T03:42:31.357Z,2.40
2018-05-07T03:44:59.622Z,2.87
2018-05-07T03:47:27.913Z,3.00
2018-05-07T03:49:56.165Z,3.33
2018-05-07T03:52:24.431Z,3.50
2018-05-07T03:54:52.759Z,2.97
2018-05-07T03:57:20.980Z,2.30
2018-05-07T03:59:49.343Z,2.87
2018-05-07T04:02:17.522Z,3.73
2018-05-07T04:04:45.805Z,2.87
2018-05-07T04:07:14.136Z,3.33
2018-05-07T04:09:42.350Z,2.80
2018-05-07T04:12:10.625Z,3.80
2018-05-07T04:14:38.894Z,3.50
2018-05-07T04:17:18.948Z,3.40
2018-05-07T04:19:58.857Z,3.43
2018-05-07T04:22:38.881Z,3.20
2018-05-07T04:25:07.149Z,3.00
2018-05-07T04:27:35.425Z,3.30
2018-05-07T04:30:03.690Z,3.20
2018-05-07T04:32:31.980Z,3.60
2018-05-07T04:35:00.241Z,3.60
2018-05-07T04:37:28.507Z,3.23
2018-05-07T04:39:56.782Z,3.60
2018-05-07T04:42:25.054Z,4.90
2018-05-07T04:44:53.330Z,3.53
2018-05-07T04:47:21.594Z,4.70
2018-05-07T04:49:49.873Z,3.83
2018-05-07T04:52:18.138Z,3.23
2018-05-07T04:54:46.406Z,3.67
2018-05-07T04:57:14.677Z,3.30
2018-05-07T04:59:42.949Z,3.50
2018-05-07T05:02:11.221Z,4.03
2018-05-07T05:04:39.489Z,3.17
2018-05-07T05:07:07.782Z,3.73
2018-05-07T05:09:36.038Z,3.40
2018-05-07T05:12:04.306Z,3.60
2018-05-07T05:14:33.381Z,3.83
2018-05-07T05:17:01.649Z,3.20
2018-05-07T05:19:29.921Z,3.53
2018-05-07T05:21:58.193Z,3.50
2018-05-07T05:24:26.476Z,4.30
2018-05-07T05:26:54.743Z,3.37
2018-05-07T05:29:23.009Z,3.70
2018-05-07T05:31:51.297Z,4.60
2018-05-07T05:34:19.562Z,3.83
2018-05-07T05:36:47.838Z,4.33
2018-05-07T05:39:16.105Z,4.50
2018-05-07T05:41:44.405Z,3.33
2018-05-07T05:44:12.678Z,3.93
2018-05-07T05:46:40.941Z,3.67
2018-05-07T05:49:09.217Z,3.23
2018-05-07T05:51:37.483Z,2.80
2018-05-07T05:54:05.761Z,3.17
2018-05-07T05:56:34.027Z,3.30
2018-05-07T05:59:02.321Z,3.97
2018-05-07T06:01:30.591Z,3.70
2018-05-07T06:03:58.900Z,3.57
2018-05-07T06:06:27.143Z,3.30
2018-05-07T06:08:55.482Z,3.10
2018-05-07T06:11:23.747Z,3.27
2018-05-07T06:13:52.002Z,3.60
2018-05-07T06:16:20.278Z,3.33
2018-05-07T06:18:48.549Z,3.80
2018-05-07T06:21:16.895Z,3.30
2018-05-07T06:23:46.202Z,3.47
2018-05-07T06:26:14.500Z,3.43
2018-05-07T06:28:42.817Z,3.73
2018-05-07T06:31:11.087Z,3.57
2018-05-07T06:33:39.373Z,3.40
2018-05-07T06:36:07.635Z,3.60
2018-05-07T06:38:35.986Z,3.80
2018-05-07T06:41:05.225Z,2.80
2018-05-07T06:43:33.497Z,3.13
2018-05-07T06:46:01.917Z,3.07
2018-05-07T06:48:30.202Z,3.90
2018-05-07T06:50:58.695Z,2.87
2018-05-07T06:53:27.070Z,4.43
2018-05-07T06:55:55.349Z,3.57
2018-05-07T06:58:23.884Z,3.73
2018-05-07T07:00:52.153Z,3.10
2018-05-07T07:03:20.495Z,2.90
2018-05-07T07:05:48.750Z,3.10
2018-05-07T07:08:17.123Z,2.97
2018-05-07T07:10:45.330Z,2.77
2018-05-07T07:13:13.595Z,3.40
2018-05-07T07:15:41.870Z,3.10
2018-05-07T07:18:10.142Z,3.20
2018-05-07T07:20:38.422Z,3.87
2018-05-07T07:23:06.689Z,2.87
2018-05-07T07:25:34.968Z,2.97
2018-05-07T07:28:03.295Z,3.33
2018-05-07T07:30:31.498Z,3.27
2018-05-07T07:32:59.798Z,3.10
2018-05-07T07:35:28.041Z,3.10
2018-05-07T07:37:56.313Z,2.93
2018-05-07T07:40:24.587Z,2.97
2018-05-07T07:42:52.878Z,2.77
2018-05-07T07:45:21.189Z,2.60
2018-05-07T07:47:49.491Z,2.90
2018-05-07T07:50:17.764Z,2.90
2018-05-07T07:52:46.031Z,2.70
2018-05-07T07:55:14.306Z,3.20
2018-05-07T07:57:42.574Z,2.87
2018-05-07T08:00:10.918Z,2.73
2018-05-07T08:02:39.170Z,2.63
2018-05-07T08:05:07.437Z,3.07
2018-05-07T08:07:35.714Z,3.10
2018-05-07T08:10:04.000Z,2.97
2018-05-07T08:12:32.294Z,2.93
2018-05-07T08:15:00.570Z,2.90
2018-05-07T08:17:28.849Z,2.93
2018-05-07T08:19:57.120Z,2.70
2018-05-07T08:22:25.395Z,2.90
2018-05-07T08:24:53.676Z,3.03
2018-05-07T08:27:21.975Z,2.63
2018-05-07T08:29:50.245Z,2.90
2018-05-07T08:32:18.510Z,2.67
2018-05-07T08:34:46.800Z,2.63
2018-05-07T08:37:15.084Z,2.57
2018-05-07T08:39:43.345Z,3.13
2018-05-07T08:42:11.631Z,2.93
2018-05-07T08:44:39.913Z,2.50
2018-05-07T08:47:08.194Z,2.77
2018-05-07T08:49:36.468Z,2.97
2018-05-07T08:52:04.750Z,2.63
2018-05-07T08:54:33.101Z,2.73
2018-05-07T08:57:01.375Z,3.40
2018-05-07T08:59:29.650Z,2.80
2018-05-07T09:01:57.923Z,2.97
2018-05-07T09:04:26.212Z,2.90
2018-05-07T09:06:54.482Z,3.20
2018-05-07T09:09:22.766Z,3.33
2018-05-07T09:11:51.043Z,2.83
2018-05-07T09:14:19.314Z,3.00
2018-05-07T09:16:48.588Z,3.07
2018-05-07T09:19:16.845Z,2.90
2018-05-07T09:21:45.273Z,3.30
2018-05-07T09:24:13.515Z,3.10
2018-05-07T09:26:41.802Z,3.20
2018-05-07T09:29:10.075Z,3.00
2018-05-07T09:31:38.363Z,3.20
2018-05-07T09:34:06.654Z,3.10
2018-05-07T09:36:34.959Z,2.77
2018-05-07T09:39:07.863Z,2.70
2018-05-07T09:41:36.132Z,3.00
2018-05-07T09:44:04.406Z,2.93
2018-05-07T09:46:32.690Z,3.13
2018-05-07T09:49:01.345Z,2.77
2018-05-07T09:51:29.603Z,2.90
2018-05-07T09:53:57.878Z,2.90
2018-05-07T09:56:26.166Z,2.53
2018-05-07T09:58:59.274Z,2.63
2018-05-07T10:01:27.561Z,2.67
2018-05-07T10:03:55.949Z,2.77
2018-05-07T10:06:24.232Z,2.90
2018-05-07T10:08:52.584Z,2.50
2018-05-07T10:11:20.889Z,3.00
2018-05-07T10:13:49.462Z,2.57
2018-05-07T10:16:17.822Z,2.40
2018-05-07T10:18:48.067Z,2.37
2018-05-07T10:21:16.391Z,2.40
2018-05-07T10:23:47.213Z,2.40
2018-05-07T10:26:15.618Z,2.07
2018-05-07T10:28:43.895Z,2.43
2018-05-07T10:31:12.487Z,2.33
2018-05-07T10:33:40.917Z,2.40
2018-05-07T10:36:09.198Z,2.13
2018-05-07T10:38:37.534Z,1.90
2018-05-07T10:41:06.217Z,2.43
2018-05-07T10:43:34.489Z,2.20
2018-05-07T10:46:02.764Z,2.20
2018-05-07T10:48:31.034Z,2.30
2018-05-07T10:50:59.314Z,2.67
2018-05-07T10:53:27.595Z,2.40
2018-05-07T10:55:55.859Z,2.10
2018-05-07T10:58:24.405Z,2.67
2018-05-07T11:00:52.680Z,2.13
2018-05-07T11:03:20.962Z,2.30
2018-05-07T11:05:49.239Z,2.00
2018-05-07T11:08:17.670Z,2.63
2018-05-07T11:10:45.954Z,2.03
2018-05-07T11:13:14.225Z,2.30
2018-05-07T11:15:42.513Z,2.20
2018-05-07T11:18:10.785Z,2.27
2018-05-07T11:20:39.062Z,3.67
2018-05-07T11:23:07.342Z,2.43
2018-05-07T11:25:35.613Z,2.70
2018-05-07T11:28:03.889Z,2.67
2018-05-07T11:30:32.166Z,2.70
2018-05-07T11:33:00.441Z,2.40
2018-05-07T11:35:28.719Z,2.60
2018-05-07T11:37:57.003Z,2.53
2018-05-07T11:40:25.282Z,2.50
2018-05-07T11:42:53.565Z,2.40
2018-05-07T11:45:21.845Z,2.73
2018-05-07T11:47:50.115Z,2.10
2018-05-07T11:50:18.394Z,2.50
2018-05-07T11:52:46.677Z,1.97
2018-05-07T11:55:14.959Z,2.70
2018-05-07T11:57:43.234Z,2.37
2018-05-07T12:00:11.512Z,2.37
2018-05-07T12:02:39.801Z,2.57
2018-05-07T12:05:08.058Z,2.40
2018-05-07T12:07:36.370Z,2.50
2018-05-07T12:10:04.637Z,2.00
2018-05-07T12:12:32.905Z,2.10
2018-05-07T12:15:01.178Z,3.60
2018-05-07T12:17:29.450Z,2.47
2018-05-07T12:19:57.729Z,1.90
2018-05-07T12:22:25.998Z,2.00
2018-05-07T12:24:54.295Z,2.50
2018-05-07T12:27:22.563Z,2.33
2018-05-07T12:29:50.831Z,2.00
2018-05-07T12:32:19.106Z,2.23
2018-05-07T12:34:47.381Z,2.03
2018-05-07T12:37:15.674Z,2.50
2018-05-07T12:39:43.950Z,2.10
2018-05-07T12:42:12.238Z,2.30
2018-05-07T12:44:40.592Z,2.07
2018-05-07T12:47:08.858Z,2.20
2018-05-07T12:49:37.136Z,2.10
2018-05-07T12:52:05.705Z,2.50
2018-05-07T12:57:37.106Z,2.10
2018-05-07T13:00:05.427Z,2.20
2018-05-07T13:02:33.690Z,2.17
2018-05-07T13:05:01.970Z,2.73
2018-05-07T13:07:30.245Z,2.07
2018-05-07T13:09:58.540Z,1.90
2018-05-07T13:12:26.814Z,1.93
2018-05-07T13:14:55.094Z,2.17
2018-05-07T13:17:23.381Z,1.80
2018-05-07T13:19:51.663Z,1.97
2018-05-07T13:22:19.957Z,2.20
2018-05-07T13:24:48.245Z,2.33
2018-05-07T13:27:16.522Z,2.20
2018-05-07T13:29:44.802Z,1.93
2018-05-07T13:32:13.070Z,2.23
2018-05-07T13:34:41.643Z,2.33
2018-05-07T13:37:09.920Z,1.97
2018-05-07T13:39:38.982Z,2.07
2018-05-07T13:42:07.261Z,2.63
2018-05-07T13:44:35.541Z,1.80
2018-05-07T13:47:03.814Z,1.97
2018-05-07T13:49:32.107Z,1.97
2018-05-07T13:52:00.775Z,2.03
2018-05-07T13:54:29.070Z,1.87
2018-05-07T13:56:57.491Z,1.87
2018-05-07T13:59:25.685Z,2.00
2018-05-07T14:01:53.951Z,1.90
2018-05-07T14:04:22.270Z,2.00
2018-05-07T14:06:50.550Z,2.57
2018-05-07T14:09:18.837Z,2.47
2018-05-07T14:11:47.120Z,2.10
2018-05-07T14:14:15.390Z,1.80
2018-05-07T14:16:43.696Z,2.13
2018-05-07T14:19:11.943Z,2.40
2018-05-07T14:21:40.365Z,2.13
2018-05-07T14:24:08.646Z,2.20
2018-05-07T14:26:36.939Z,2.30
2018-05-07T14:29:05.219Z,2.20
2018-05-07T14:31:33.507Z,1.70
2018-05-07T14:34:01.791Z,2.07
2018-05-07T14:36:30.059Z,2.10
2018-05-07T14:38:58.350Z,2.30
2018-05-07T14:41:26.619Z,2.07
2018-05-07T14:43:54.943Z,2.43
2018-05-07T14:46:23.218Z,2.07
2018-05-07T14:48:51.509Z,2.07
2018-05-07T14:51:19.785Z,2.53
2018-05-07T14:53:48.060Z,2.00
2018-05-07T14:56:16.342Z,2.07
2018-05-07T14:58:44.668Z,2.40
2018-05-07T15:01:12.897Z,2.07
2018-05-07T15:03:41.170Z,2.23
2018-05-07T15:06:09.442Z,2.53
2018-05-07T15:08:37.721Z,1.90
2018-05-07T15:11:05.989Z,1.90
2018-05-07T15:13:34.290Z,1.93
2018-05-07T15:16:02.542Z,2.37
2018-05-07T15:18:30.830Z,2.30
2018-05-07T15:20:59.101Z,2.50
2018-05-07T15:23:27.405Z,1.90
2018-05-07T15:25:55.978Z,2.40
2018-05-07T15:28:24.250Z,2.00
2018-05-07T15:30:52.536Z,1.97
2018-05-07T15:36:17.579Z,2.13
2018-05-07T15:38:45.806Z,2.63
2018-05-07T15:41:14.102Z,2.43
2018-05-07T15:43:42.483Z,2.10
2018-05-07T15:46:10.667Z,2.00
2018-05-07T15:48:38.939Z,1.73
2018-05-07T15:51:07.218Z,2.43
2018-05-07T15:53:35.490Z,2.40
2018-05-07T15:56:03.921Z,2.30
2018-05-07T15:58:32.043Z,1.97
2018-05-07T16:01:00.340Z,1.90
2018-05-07T16:03:28.618Z,2.33
2018-05-07T16:05:56.894Z,2.47
2018-05-07T16:08:25.174Z,2.00
2018-05-07T16:10:53.443Z,1.83
2018-05-07T16:13:21.718Z,2.40
2018-05-07T16:15:49.999Z,2.53
2018-05-07T16:18:18.290Z,2.03
2018-05-07T16:20:46.586Z,2.00
2018-05-07T16:23:14.958Z,2.40
2018-05-07T16:25:43.172Z,2.10
2018-05-07T16:28:11.456Z,2.47
2018-05-07T16:30:41.199Z,1.70
2018-05-07T16:33:09.495Z,1.93
2018-05-07T16:35:37.757Z,1.80
2018-05-07T16:38:06.036Z,2.00
2018-05-07T16:40:34.313Z,2.13
2018-05-07T16:43:02.583Z,2.40
2018-05-07T16:45:30.879Z,2.10
2018-05-07T16:47:59.148Z,2.30
2018-05-07T16:50:27.463Z,1.73
2018-05-07T16:52:55.746Z,2.20
2018-05-07T16:55:24.026Z,2.50
2018-05-07T16:57:52.295Z,2.50
2018-05-07T17:00:20.601Z,2.30
2018-05-07T17:02:48.882Z,2.47
2018-05-07T17:05:17.161Z,2.30
2018-05-07T17:07:45.498Z,2.17
2018-05-07T17:10:13.766Z,2.13
2018-05-07T17:12:42.041Z,1.80
2018-05-07T17:15:13.143Z,2.27
2018-05-07T17:17:41.427Z,2.33
2018-05-07T17:20:09.711Z,2.53
2018-05-07T17:22:37.994Z,2.73
2018-05-07T17:25:06.437Z,2.60
2018-05-07T17:27:34.710Z,1.73
2018-05-07T17:30:03.106Z,2.63
2018-05-07T17:32:31.299Z,1.97
2018-05-07T17:34:59.574Z,2.33
2018-05-07T17:37:27.854Z,2.20
2018-05-07T17:39:56.123Z,2.00
2018-05-07T17:42:24.410Z,2.63
2018-05-07T17:48:10.869Z,2.23
2018-05-07T17:50:39.118Z,2.33
2018-05-07T17:53:07.419Z,2.13
2018-05-07T17:55:35.690Z,1.80
2018-05-07T17:58:03.978Z,1.67
2018-05-07T18:00:32.254Z,2.03
2018-05-07T18:03:00.695Z,2.87
2018-05-07T18:05:29.063Z,2.33
2018-05-07T18:07:57.326Z,2.10
2018-05-07T18:10:25.623Z,2.20
2018-05-07T18:12:53.898Z,2.33
2018-05-07T18:15:22.174Z,2.10
2018-05-07T18:17:50.440Z,2.20
2018-05-07T18:20:18.731Z,2.53
2018-05-07T18:22:47.006Z,2.20
2018-05-07T18:25:15.275Z,1.87
2018-05-07T18:27:43.564Z,2.07
2018-05-07T18:30:11.835Z,1.90
2018-05-07T18:32:40.102Z,1.83
2018-05-07T18:35:08.399Z,1.53
2018-05-07T18:37:36.674Z,2.03
2018-05-07T18:40:04.947Z,2.20
2018-05-07T18:42:33.242Z,1.93
2018-05-07T18:45:01.522Z,2.17
2018-05-07T18:47:29.798Z,1.90
2018-05-07T18:49:58.092Z,1.90
2018-05-07T18:52:26.433Z,1.90
2018-05-07T18:54:54.723Z,1.93
2018-05-07T18:57:23.019Z,2.80
2018-05-07T18:59:51.297Z,1.87
2018-05-07T19:02:19.658Z,2.10
2018-05-07T19:04:47.964Z,2.17
2018-05-07T19:07:16.239Z,2.47
2018-05-07T19:09:44.523Z,2.70
2018-05-07T19:12:12.811Z,2.17
2018-05-07T19:14:41.085Z,2.70
2018-05-07T19:17:09.370Z,2.10
2018-05-07T19:19:37.713Z,2.10
2018-05-07T19:22:06.450Z,2.57
2018-05-07T19:24:34.728Z,2.37
2018-05-07T19:27:03.026Z,2.70
2018-05-07T19:29:31.299Z,2.40
2018-05-07T19:31:59.570Z,2.10
2018-05-07T19:34:27.866Z,2.17
2018-05-07T19:36:56.136Z,2.00
2018-05-07T19:39:24.405Z,2.70
2018-05-07T19:41:52.713Z,2.03
2018-05-07T19:44:20.982Z,2.77
2018-05-07T19:46:49.262Z,2.47
2018-05-07T19:49:17.550Z,3.50
2018-05-07T19:51:46.194Z,3.27
2018-05-07T19:54:14.465Z,2.83
2018-05-07T19:56:42.758Z,3.67
2018-05-07T19:59:11.023Z,4.10
2018-05-07T20:01:39.306Z,3.53
2018-05-07T20:04:07.595Z,2.93
2018-05-07T20:06:35.890Z,3.97
2018-05-07T20:09:04.155Z,4.67
2018-05-07T20:11:32.442Z,4.40
2018-05-07T20:14:00.715Z,3.80
2018-05-07T20:16:28.985Z,4.00
2018-05-07T20:18:57.287Z,4.90
2018-05-07T20:21:25.573Z,3.93
2018-05-07T20:23:53.861Z,4.43
2018-05-07T20:26:22.148Z,2.97
2018-05-07T20:28:50.427Z,4.13
2018-05-07T20:31:18.695Z,3.47
2018-05-07T20:33:46.974Z,3.00
2018-05-07T20:36:15.242Z,3.17
2018-05-07T20:38:43.527Z,3.90
2018-05-07T20:41:11.813Z,3.80
2018-05-07T20:43:40.082Z,3.93
2018-05-07T20:46:08.361Z,4.07
2018-05-07T20:48:36.890Z,3.10
2018-05-07T20:51:05.163Z,3.50
2018-05-07T20:53:33.458Z,3.40
2018-05-07T20:56:01.738Z,3.40
2018-05-07T20:58:30.021Z,3.30
2018-05-07T21:00:58.293Z,2.80
2018-05-07T21:03:26.606Z,3.00
2018-05-07T21:05:54.882Z,2.87
2018-05-07T21:08:23.156Z,2.80
2018-05-07T21:10:51.442Z,2.97
2018-05-07T21:13:19.723Z,3.00
2018-05-07T21:15:48.002Z,2.13
2018-05-07T21:18:16.291Z,3.00
2018-05-07T21:20:44.562Z,2.90
2018-05-07T21:23:12.834Z,3.47
2018-05-07T21:25:41.153Z,2.83
2018-05-07T21:28:09.422Z,2.70
2018-05-07T21:30:37.711Z,2.63
2018-05-07T21:33:06.002Z,2.60
2018-05-07T21:35:34.274Z,2.93
2018-05-07T21:38:02.560Z,2.47
2018-05-07T21:40:30.850Z,2.80
2018-05-07T21:42:59.118Z,2.90
2018-05-07T21:45:27.393Z,2.20
2018-05-07T21:47:55.682Z,2.77
2018-05-07T21:50:23.958Z,3.10
2018-05-07T21:52:52.232Z,2.97
2018-05-07T21:55:20.519Z,2.73
2018-05-07T21:57:48.794Z,2.70
2018-05-07T22:00:17.062Z,2.60
2018-05-07T22:02:45.350Z,2.77
2018-05-07T22:05:13.633Z,2.07
2018-05-07T22:07:41.919Z,2.70
2018-05-07T22:10:10.220Z,2.83
2018-05-07T22:12:38.486Z,2.67
2018-05-07T22:15:06.764Z,2.57
2018-05-07T22:17:35.122Z,3.00
2018-05-07T22:20:03.414Z,2.87
2018-05-07T22:22:31.699Z,2.00
2018-05-07T22:24:59.972Z,2.10
2018-05-07T22:27:28.255Z,2.50
2018-05-07T22:29:56.518Z,2.97
2018-05-07T22:32:24.809Z,2.40
2018-05-07T22:34:53.080Z,3.27
2018-05-07T22:37:21.340Z,2.80
2018-05-07T22:39:49.645Z,2.90
2018-05-07T22:42:17.893Z,3.20
2018-05-07T22:44:46.184Z,2.63
2018-05-07T22:47:14.465Z,2.50
2018-05-07T22:49:42.835Z,2.43
2018-05-07T22:52:11.132Z,2.73
2018-05-07T22:54:39.306Z,2.90
2018-05-07T22:57:07.594Z,2.37
2018-05-07T22:59:35.871Z,3.07
2018-05-07T23:02:04.142Z,3.07
2018-05-07T23:04:32.426Z,3.50
2018-05-07T23:07:00.698Z,2.93
2018-05-07T23:09:28.986Z,3.20
2018-05-07T23:11:57.258Z,3.43
2018-05-07T23:14:25.566Z,2.50
2018-05-07T23:16:53.822Z,3.57
2018-05-07T23:19:22.093Z,3.53
2018-05-07T23:21:50.458Z,2.97
2018-05-07T23:24:18.731Z,3.60
2018-05-07T23:26:47.003Z,3.13
2018-05-07T23:29:15.288Z,3.07
2018-05-07T23:31:43.556Z,3.30
2018-05-07T23:34:11.847Z,2.90
2018-05-07T23:36:40.119Z,3.23
2018-05-07T23:39:08.386Z,2.80
2018-05-07T23:41:36.666Z,3.00
2018-05-07T23:44:04.940Z,3.40
2018-05-07T23:46:33.207Z,3.20
2018-05-07T23:49:01.482Z,3.23
2018-05-07T23:51:29.770Z,3.17
2018-05-07T23:53:58.043Z,2.83
2018-05-07T23:56:26.321Z,3.20
2018-05-07T23:58:54.694Z,3.30
